Time;durP1;ratioP1;P1;durP2;ratioP2;P2;SDS_P1;SDS_P2;PMS_P1;PMS_P2;Temp;Humidity;BMP_temperature;BMP_pressure;BME280_temperature;BME280_humidity;BME280_pressure;Samples;Min_cycle;Max_cycle;Signal;HPM_P1;HPM_P2
2022/06/28 00:00:23;;;;;;;3.50;2.97;;;20.60;99.70;;;;;;5084827;28;20167;-95
2022/06/28 00:02:48;;;;;;;3.07;2.30;;;20.60;99.70;;;;;;5084955;28;20166;-95
2022/06/28 00:05:14;;;;;;;4.20;2.77;;;20.60;99.70;;;;;;5084771;28;20171;-94
2022/06/28 00:07:41;;;;;;;4.00;3.03;;;20.60;99.80;;;;;;5084471;28;20174;-95
2022/06/28 00:10:09;;;;;;;6.00;3.10;;;20.60;99.80;;;;;;5084208;28;20218;-94
2022/06/28 00:12:35;;;;;;;4.27;2.90;;;20.60;99.80;;;;;;5084522;28;20547;-95
2022/06/28 00:17:47;;;;;;;4.13;3.30;;;20.60;99.90;;;;;;5101860;28;20193;-95
2022/06/28 00:22:57;;;;;;;6.60;3.80;;;20.60;99.80;;;;;;5101478;28;20210;-95
2022/06/28 00:25:23;;;;;;;6.23;4.27;;;20.50;99.80;;;;;;5084249;28;20175;-94
2022/06/28 00:27:49;;;;;;;5.80;3.10;;;20.60;99.80;;;;;;5084113;28;20219;-94
2022/06/28 00:30:21;;;;;;;5.80;4.20;;;20.50;99.70;;;;;;5082891;28;20486;-95
2022/06/28 00:32:47;;;;;;;4.77;3.90;;;20.50;99.70;;;;;;5084108;28;20172;-95
2022/06/28 00:35:13;;;;;;;6.63;3.67;;;20.50;99.70;;;;;;5083109;28;20210;-94
2022/06/28 00:37:38;;;;;;;5.50;3.80;;;20.50;99.70;;;;;;5083549;28;20172;-95
2022/06/28 00:40:15;;;;;;;5.27;3.70;;;20.50;99.70;;;;;;5083650;28;20197;-95
2022/06/28 00:42:41;;;;;;;6.50;3.77;;;20.50;99.70;;;;;;5083813;28;20205;-95
2022/06/28 00:45:07;;;;;;;7.83;4.33;;;20.50;99.60;;;;;;5083064;28;20174;-94
2022/06/28 00:47:33;;;;;;;4.90;3.80;;;20.50;99.50;;;;;;5083272;28;20242;-95
2022/06/28 00:50:11;;;;;;;5.03;3.73;;;20.50;99.50;;;;;;5083573;28;20191;-95
2022/06/28 00:53:04;;;;;;;5.57;3.90;;;20.50;99.60;;;;;;5083495;28;20168;-95
2022/06/28 00:55:30;;;;;;;6.03;3.80;;;20.50;99.40;;;;;;5083516;28;20151;-94
2022/06/28 00:58:46;;;;;;;5.30;3.80;;;20.50;99.50;;;;;;5083497;28;20185;-95
2022/06/28 01:01:11;;;;;;;5.53;4.37;;;20.50;99.40;;;;;;5083695;28;20170;-95
2022/06/28 01:03:37;;;;;;;6.30;3.77;;;20.50;99.40;;;;;;5082771;28;20159;-96
2022/06/28 01:06:03;;;;;;;4.27;2.70;;;20.50;99.40;;;;;;5083065;28;20193;-95
2022/06/28 01:08:29;;;;;;;6.47;3.77;;;20.50;99.40;;;;;;5082847;28;20178;-95
2022/06/28 01:10:55;;;;;;;5.03;3.57;;;20.50;99.40;;;;;;5081419;28;20198;-95
2022/06/28 01:13:21;;;;;;;5.77;3.80;;;20.50;99.40;;;;;;5081537;28;20183;-95
2022/06/28 01:15:47;;;;;;;5.90;3.53;;;20.40;99.30;;;;;;5080732;28;20175;-94
2022/06/28 01:18:23;;;;;;;3.73;3.37;;;20.40;99.30;;;;;;5080619;28;20168;-94
2022/06/28 01:20:49;;;;;;;4.73;3.60;;;20.40;99.30;;;;;;5081564;28;20174;-95
2022/06/28 01:23:19;;;;;;;5.07;3.20;;;20.40;99.30;;;;;;5080706;28;20183;-95
2022/06/28 01:25:45;;;;;;;6.27;4.10;;;20.40;99.30;;;;;;5081028;28;20179;-95
2022/06/28 01:28:13;;;;;;;5.30;3.50;;;20.40;99.20;;;;;;5080328;28;20174;-94
2022/06/28 01:30:39;;;;;;;6.10;3.70;;;20.40;99.20;;;;;;5078698;28;20191;-95
2022/06/28 01:33:05;;;;;;;6.00;3.57;;;20.40;99.10;;;;;;5079331;28;20297;-94
2022/06/28 01:35:31;;;;;;;3.60;3.30;;;20.30;99.20;;;;;;5078799;28;20175;-94
2022/06/28 01:38:21;;;;;;;5.80;3.67;;;20.30;99.20;;;;;;5080629;28;20175;-94
2022/06/28 01:40:48;;;;;;;3.93;3.53;;;20.30;99.20;;;;;;5082743;28;20166;-94
2022/06/28 01:43:14;;;;;;;5.90;4.00;;;20.30;99.20;;;;;;5082916;28;20178;-94
2022/06/28 01:45:41;;;;;;;3.93;3.20;;;20.30;99.20;;;;;;5081589;28;20170;-94
2022/06/28 01:48:20;;;;;;;6.23;3.60;;;20.30;99.10;;;;;;5082522;28;20233;-94
2022/06/28 01:50:49;;;;;;;5.43;3.67;;;20.30;99.00;;;;;;5082303;28;20208;-94
2022/06/28 01:53:15;;;;;;;4.77;3.20;;;20.30;99.10;;;;;;5082133;28;20218;-94
2022/06/28 01:55:41;;;;;;;2.73;1.80;;;20.30;99.10;;;;;;5080782;28;20169;-95
2022/06/28 01:58:26;;;;;;;5.77;3.80;;;20.30;99.10;;;;;;5081330;28;20196;-95
2022/06/28 02:00:52;;;;;;;6.50;3.53;;;20.30;99.10;;;;;;5081782;28;20188;-94
2022/06/28 02:03:18;;;;;;;4.97;3.40;;;20.30;99.00;;;;;;5081888;28;20182;-94
2022/06/28 02:05:43;;;;;;;4.53;3.70;;;20.30;99.00;;;;;;5081321;28;20170;-95
2022/06/28 02:08:11;;;;;;;4.80;3.60;;;20.30;98.90;;;;;;5080304;28;20183;-95
2022/06/28 02:10:36;;;;;;;5.37;3.80;;;20.30;99.00;;;;;;5077062;28;20270;-94
2022/06/28 02:13:02;;;;;;;5.10;3.17;;;20.30;98.90;;;;;;5074427;28;20189;-94
2022/06/28 02:15:28;;;;;;;4.53;3.10;;;20.20;98.90;;;;;;5075280;28;20194;-94
2022/06/28 02:18:14;;;;;;;4.87;3.90;;;20.30;98.80;;;;;;5075671;28;20179;-94
2022/06/28 02:20:39;;;;;;;7.23;3.73;;;20.30;98.80;;;;;;5076566;28;20195;-94
2022/06/28 02:23:05;;;;;;;4.57;3.60;;;20.30;98.70;;;;;;5077130;28;20205;-95
2022/06/28 02:25:31;;;;;;;5.27;3.67;;;20.30;98.60;;;;;;5076795;28;20273;-94
2022/06/28 02:27:59;;;;;;;4.90;3.90;;;20.30;98.60;;;;;;5075399;28;20196;-94
2022/06/28 02:30:25;;;;;;;4.50;4.10;;;20.30;98.50;;;;;;5075603;28;20213;-95
2022/06/28 02:32:50;;;;;;;4.03;3.63;;;20.30;98.50;;;;;;5077237;28;20226;-94
2022/06/28 02:40:44;;;;;;;5.17;3.83;;;20.20;98.40;;;;;;5092986;28;20204;-94
2022/06/28 02:43:10;;;;;;;6.00;3.60;;;20.20;98.40;;;;;;5072606;28;20553;-94
2022/06/28 02:45:36;;;;;;;6.80;4.30;;;20.30;98.40;;;;;;5073474;28;20213;-94
2022/06/28 02:48:03;;;;;;;7.50;4.30;;;20.20;98.40;;;;;;5072926;28;20178;-94
2022/06/28 02:50:30;;;;;;;5.77;4.47;;;20.20;98.40;;;;;;5072306;28;20213;-94
2022/06/28 02:52:56;;;;;;;5.20;4.10;;;20.20;98.30;;;;;;5073084;28;20188;-94
2022/06/28 02:55:22;;;;;;;5.33;4.00;;;20.20;98.40;;;;;;5073730;28;20179;-94
2022/06/28 02:57:48;;;;;;;6.23;4.37;;;20.20;98.40;;;;;;5072314;28;20243;-93
2022/06/28 03:00:17;;;;;;;4.80;4.30;;;20.20;98.40;;;;;;5072474;28;20173;-94
2022/06/28 03:02:45;;;;;;;9.53;4.40;;;20.10;98.40;;;;;;5071428;28;20178;-93
2022/06/28 03:05:13;;;;;;;7.17;4.60;;;20.10;98.50;;;;;;5071058;28;20175;-94
2022/06/28 03:07:39;;;;;;;6.23;4.80;;;20.10;98.50;;;;;;5071643;28;20178;-93
2022/06/28 03:10:06;;;;;;;5.50;4.20;;;20.10;98.40;;;;;;5070972;28;20201;-94
2022/06/28 03:12:32;;;;;;;6.83;4.47;;;20.10;98.40;;;;;;5071348;28;20183;-93
2022/06/28 03:14:58;;;;;;;7.17;4.07;;;20.10;98.40;;;;;;5071646;28;20276;-94
2022/06/28 03:17:24;;;;;;;7.00;4.70;;;20.10;98.40;;;;;;5066914;28;20208;-94
2022/06/28 03:19:49;;;;;;;4.60;4.00;;;20.10;98.40;;;;;;5066739;28;20186;-94
2022/06/28 03:22:15;;;;;;;7.33;4.50;;;20.00;98.40;;;;;;5067564;28;20194;-94
2022/06/28 03:24:41;;;;;;;4.83;4.10;;;20.00;98.40;;;;;;5065667;28;20206;-93
2022/06/28 03:27:07;;;;;;;4.97;4.47;;;20.00;98.50;;;;;;5065911;28;20312;-93
2022/06/28 03:29:33;;;;;;;7.97;4.77;;;20.00;98.50;;;;;;5066173;28;20177;-94
2022/06/28 03:31:58;;;;;;;6.13;4.43;;;20.00;98.50;;;;;;5067335;28;20522;-94
2022/06/28 03:34:24;;;;;;;4.73;3.70;;;20.00;98.50;;;;;;5068795;28;20214;-94
2022/06/28 03:36:53;;;;;;;4.67;4.00;;;19.90;98.40;;;;;;5067440;28;20473;-94
2022/06/28 03:39:19;;;;;;;5.03;4.20;;;19.90;98.40;;;;;;5065750;28;20179;-94
2022/06/28 03:41:45;;;;;;;8.03;4.80;;;19.90;98.40;;;;;;5067029;28;20429;-94
2022/06/28 03:44:10;;;;;;;5.00;4.50;;;19.80;98.30;;;;;;5068025;28;20197;-94
2022/06/28 03:46:36;;;;;;;5.70;4.47;;;19.80;98.40;;;;;;5068949;28;20201;-94
2022/06/28 03:49:02;;;;;;;5.57;4.73;;;19.80;98.40;;;;;;5069458;28;20201;-95
2022/06/28 03:51:28;;;;;;;5.97;4.50;;;19.80;98.40;;;;;;5070637;28;20209;-93
2022/06/28 03:53:54;;;;;;;5.03;4.53;;;19.80;98.40;;;;;;5071379;28;20231;-94
2022/06/28 03:56:19;;;;;;;6.70;4.33;;;19.80;98.50;;;;;;5071488;28;20170;-93
2022/06/28 03:58:45;;;;;;;5.23;4.30;;;19.80;98.50;;;;;;5070447;28;20173;-94
2022/06/28 04:01:11;;;;;;;6.30;4.27;;;19.80;98.50;;;;;;5071607;28;20173;-94
2022/06/28 04:03:36;;;;;;;6.73;4.60;;;19.80;98.50;;;;;;5072326;28;20183;-94
2022/06/28 04:06:03;;;;;;;5.30;4.30;;;19.70;98.50;;;;;;5073293;28;20181;-94
2022/06/28 04:08:29;;;;;;;5.43;4.73;;;19.80;98.50;;;;;;5071711;28;20209;-94
2022/06/28 04:13:46;;;;;;;6.47;4.43;;;19.80;98.40;;;;;;5092477;28;20233;-94
2022/06/28 04:16:13;;;;;;;5.80;4.87;;;19.80;98.40;;;;;;5075693;28;20205;-93
2022/06/28 04:18:39;;;;;;;6.77;4.70;;;19.80;98.50;;;;;;5075545;28;20177;-94
2022/06/28 04:21:05;;;;;;;7.03;5.13;;;19.80;98.40;;;;;;5076721;28;20191;-94
2022/06/28 04:23:36;;;;;;;8.70;4.43;;;19.80;98.50;;;;;;5076931;28;20187;-94
2022/06/28 04:26:02;;;;;;;5.53;4.67;;;19.90;98.50;;;;;;5074481;28;20179;-93
2022/06/28 04:28:28;;;;;;;7.33;5.00;;;19.90;98.40;;;;;;5076705;28;20182;-95
2022/06/28 04:30:54;;;;;;;8.37;4.60;;;20.00;98.40;;;;;;5078150;28;20259;-94
2022/06/28 04:33:20;;;;;;;5.37;4.70;;;20.00;98.30;;;;;;5078716;28;20193;-94
2022/06/28 04:35:46;;;;;;;5.57;4.27;;;20.00;98.30;;;;;;5077151;28;20178;-94
2022/06/28 04:38:11;;;;;;;7.17;4.30;;;20.00;98.20;;;;;;5079029;28;20175;-94
2022/06/28 04:40:39;;;;;;;8.07;4.63;;;20.00;98.20;;;;;;5079371;28;20159;-95
2022/06/28 04:43:05;;;;;;;5.30;4.80;;;20.10;98.20;;;;;;5079461;28;20212;-94
2022/06/28 04:45:30;;;;;;;6.77;4.80;;;20.10;98.00;;;;;;5078576;28;20182;-94
2022/06/28 04:47:56;;;;;;;6.53;4.40;;;20.20;98.10;;;;;;5079638;28;20203;-95
2022/06/28 04:50:22;;;;;;;6.90;4.57;;;20.20;98.10;;;;;;5079361;28;20210;-95
2022/06/28 04:52:49;;;;;;;4.17;3.47;;;20.20;98.00;;;;;;5078381;28;20191;-94
2022/06/28 04:55:15;;;;;;;4.90;2.47;;;20.20;97.80;;;;;;5079663;28;20171;-95
2022/06/28 04:57:47;;;;;;;4.23;3.80;;;20.30;97.80;;;;;;5078854;28;20178;-94
2022/06/28 05:00:26;;;;;;;3.00;2.70;;;20.30;97.80;;;;;;5078908;28;20162;-94
2022/06/28 05:02:52;;;;;;;4.73;4.30;;;20.40;97.30;;;;;;5081090;28;20186;-95
2022/06/28 05:05:41;;;;;;;6.33;5.17;;;20.50;97.20;;;;;;5080635;28;20163;-95
2022/06/28 05:08:07;;;;;;;4.90;3.80;;;20.50;97.30;;;;;;5080582;28;20171;-94
2022/06/28 05:10:32;;;;;;;6.30;4.30;;;20.50;97.00;;;;;;5081159;28;20202;-94
2022/06/28 05:12:58;;;;;;;2.23;1.40;;;20.60;97.30;;;;;;5081353;28;20215;-95
2022/06/28 05:15:24;;;;;;;4.37;3.03;;;20.70;96.70;;;;;;5081066;28;20174;-95
2022/06/28 05:17:49;;;;;;;6.83;4.33;;;20.70;96.80;;;;;;5081215;28;20155;-95
2022/06/28 05:20:15;;;;;;;4.90;4.33;;;20.80;96.70;;;;;;5081199;28;20191;-94
2022/06/28 05:22:41;;;;;;;3.17;2.60;;;20.80;96.50;;;;;;5081284;28;20255;-94
2022/06/28 05:25:07;;;;;;;4.80;4.20;;;20.90;96.60;;;;;;5081358;28;20179;-95
2022/06/28 05:27:33;;;;;;;2.43;1.40;;;21.00;97.00;;;;;;5082111;28;20171;-94
2022/06/28 05:29:58;;;;;;;1.33;1.23;;;21.00;95.60;;;;;;5078713;28;20263;-94
2022/06/28 05:32:24;;;;;;;1.70;1.40;;;21.10;95.20;;;;;;5080039;28;20174;-94
2022/06/28 05:34:50;;;;;;;5.10;4.03;;;21.20;94.90;;;;;;5080495;28;20168;-94
2022/06/28 05:37:26;;;;;;;1.70;1.60;;;21.30;96.10;;;;;;5081164;28;20204;-95
2022/06/28 05:39:52;;;;;;;3.23;1.50;;;21.40;95.00;;;;;;5081646;28;20167;-94
2022/06/28 05:42:18;;;;;;;2.00;1.50;;;21.50;94.30;;;;;;5082216;28;20252;-94
2022/06/28 05:44:44;;;;;;;1.57;1.40;;;21.50;94.20;;;;;;5082452;28;20307;-94
2022/06/28 05:47:24;;;;;;;2.47;1.30;;;21.60;93.60;;;;;;5082236;28;20163;-95
2022/06/28 05:49:50;;;;;;;2.13;1.40;;;21.80;93.40;;;;;;5081770;28;20227;-95
2022/06/28 05:52:16;;;;;;;1.83;1.27;;;21.80;93.40;;;;;;5082440;28;20191;-95
2022/06/28 05:54:41;;;;;;;3.57;1.40;;;21.90;92.90;;;;;;5082608;28;20250;-94
2022/06/28 05:57:27;;;;;;;3.97;1.30;;;22.00;92.60;;;;;;5081885;28;20239;-94
2022/06/28 05:59:53;;;;;;;1.60;1.20;;;22.10;92.30;;;;;;5081990;28;20175;-94
2022/06/28 06:02:19;;;;;;;2.00;1.20;;;22.20;92.10;;;;;;5078173;28;20209;-94
2022/06/28 06:04:44;;;;;;;2.30;1.20;;;22.30;91.90;;;;;;5075981;28;20192;-94
2022/06/28 06:07:10;;;;;;;1.90;1.50;;;22.40;91.50;;;;;;5074357;28;20193;-94
2022/06/28 06:09:36;;;;;;;3.17;1.60;;;22.50;91.20;;;;;;5072344;28;20179;-94
2022/06/28 06:12:04;;;;;;;1.90;1.27;;;22.60;90.60;;;;;;5074927;28;20183;-94
2022/06/28 06:14:30;;;;;;;2.30;1.33;;;22.90;90.00;;;;;;5075394;28;20187;-94
2022/06/28 06:16:58;;;;;;;2.33;1.30;;;23.20;87.30;;;;;;5075793;28;20171;-94
2022/06/28 06:19:23;;;;;;;1.93;1.20;;;23.60;84.10;;;;;;5076175;28;20186;-94
2022/06/28 06:21:49;;;;;;;3.63;1.23;;;24.10;80.20;;;;;;5077400;28;20179;-94
2022/06/28 06:24:15;;;;;;;3.63;1.20;;;24.30;77.10;;;;;;5074653;28;20209;-94
2022/06/28 06:26:41;;;;;;;2.23;1.47;;;24.60;74.60;;;;;;5075968;28;20195;-94
2022/06/28 06:29:07;;;;;;;2.37;1.40;;;24.80;72.60;;;;;;5074807;28;20255;-94
2022/06/28 06:31:33;;;;;;;3.03;1.33;;;25.00;71.20;;;;;;5073072;28;20226;-94
2022/06/28 06:34:00;;;;;;;1.47;1.37;;;25.10;69.90;;;;;;5056934;28;20210;-94
2022/06/28 06:36:26;;;;;;;3.47;1.43;;;25.30;69.00;;;;;;5073070;28;20176;-95
2022/06/28 06:38:52;;;;;;;1.90;1.23;;;25.40;67.80;;;;;;5075613;28;20215;-94
2022/06/28 06:41:21;;;;;;;2.50;1.40;;;25.50;67.40;;;;;;5076663;28;20575;-94
2022/06/28 06:43:46;;;;;;;1.60;1.37;;;25.60;66.80;;;;;;5076219;28;20175;-94
2022/06/28 06:46:12;;;;;;;3.10;1.40;;;25.70;65.70;;;;;;5075948;28;20329;-94
2022/06/28 06:48:38;;;;;;;2.80;1.47;;;25.80;65.20;;;;;;5078408;28;20166;-95
2022/06/28 06:51:04;;;;;;;1.67;1.30;;;25.90;64.60;;;;;;5076835;28;20202;-94
2022/06/28 06:53:31;;;;;;;3.23;1.57;;;25.90;64.20;;;;;;5077401;28;20211;-94
2022/06/28 06:55:57;;;;;;;3.83;1.40;;;26.00;63.70;;;;;;5076992;28;20243;-95
2022/06/28 06:58:23;;;;;;;2.73;1.40;;;26.10;63.10;;;;;;5075500;28;20171;-95
2022/06/28 07:00:49;;;;;;;2.37;1.40;;;26.10;62.50;;;;;;5074558;28;20226;-94
2022/06/28 07:03:15;;;;;;;3.53;1.40;;;26.20;62.10;;;;;;5074167;28;20210;-95
2022/06/28 07:05:41;;;;;;;2.77;1.30;;;26.30;61.50;;;;;;5073335;28;20175;-94
2022/06/28 07:08:07;;;;;;;1.77;1.30;;;26.40;61.20;;;;;;5072793;28;20168;-94
2022/06/28 07:10:33;;;;;;;2.17;1.30;;;26.50;60.80;;;;;;5067605;28;20605;-94
2022/06/28 07:12:59;;;;;;;2.10;1.40;;;26.50;60.10;;;;;;5067758;28;20241;-94
2022/06/28 07:15:24;;;;;;;1.63;1.30;;;26.50;59.80;;;;;;5065422;28;20491;-94
2022/06/28 07:17:52;;;;;;;3.08;1.45;;;26.60;59.70;;;;;;5068281;28;20175;-95
2022/06/28 07:20:18;;;;;;;2.00;1.30;;;26.70;59.40;;;;;;5068948;28;20233;-95
2022/06/28 07:22:44;;;;;;;1.80;1.20;;;26.80;59.10;;;;;;5066138;28;20164;-95
2022/06/28 07:25:10;;;;;;;2.35;1.38;;;26.80;58.90;;;;;;5066634;28;20179;-95
2022/06/28 07:27:36;;;;;;;2.45;1.30;;;26.80;58.70;;;;;;5069595;28;20285;-95
2022/06/28 07:30:02;;;;;;;1.90;1.33;;;26.90;58.60;;;;;;5063687;28;20262;-95
2022/06/28 07:32:28;;;;;;;1.60;1.27;;;26.90;58.50;;;;;;5065079;28;20214;-94
2022/06/28 07:34:54;;;;;;;3.78;1.20;;;27.00;58.30;;;;;;5065926;28;20447;-94
2022/06/28 07:37:20;;;;;;;2.75;1.30;;;27.00;58.10;;;;;;5065098;28;20171;-94
2022/06/28 07:39:45;;;;;;;2.75;1.38;;;27.10;58.10;;;;;;5065411;28;20279;-95
2022/06/28 07:42:11;;;;;;;1.88;1.30;;;27.10;58.00;;;;;;5067126;28;20175;-95
2022/06/28 07:44:37;;;;;;;3.50;1.30;;;27.10;57.80;;;;;;5077105;28;20243;-95
2022/06/28 07:47:03;;;;;;;4.13;1.42;;;27.20;57.80;;;;;;5074474;28;20175;-95
2022/06/28 07:52:33;;;;;;;1.73;1.20;;;27.20;57.70;;;;;;5079659;28;20211;-96
2022/06/28 07:55:23;;;;;;;1.50;1.08;;;27.30;57.60;;;;;;5098304;28;20251;-96
2022/06/28 07:57:48;;;;;;;2.63;1.30;;;27.30;57.50;;;;;;5079530;28;20151;-96
2022/06/28 08:00:18;;;;;;;2.88;1.23;;;27.30;57.50;;;;;;5081420;28;20229;-95
2022/06/28 08:02:44;;;;;;;1.92;1.27;;;27.30;57.40;;;;;;5079364;28;20176;-95
2022/06/28 08:08:32;;;;;;;1.65;1.10;;;27.40;57.50;;;;;;5098518;28;20202;-96
2022/06/28 08:10:58;;;;;;;3.58;1.63;;;27.30;57.30;;;;;;5080974;28;20180;-96
2022/06/28 08:13:24;;;;;;;1.90;1.40;;;27.40;57.50;;;;;;5082947;28;20176;-96
2022/06/28 08:15:52;;;;;;;3.40;1.58;;;27.40;57.40;;;;;;5080330;28;20183;-96
2022/06/28 08:18:18;;;;;;;1.85;1.30;;;27.50;57.30;;;;;;5082447;28;20171;-96
2022/06/28 08:20:44;;;;;;;3.38;1.20;;;27.50;57.20;;;;;;5081289;28;20210;-96
2022/06/28 08:23:10;;;;;;;2.38;1.30;;;27.50;57.20;;;;;;5080316;28;20217;-96
2022/06/28 08:25:37;;;;;;;2.83;1.30;;;27.50;57.10;;;;;;5079963;28;20180;-95
2022/06/28 08:28:03;;;;;;;1.45;1.25;;;27.50;57.00;;;;;;5078547;28;20203;-96
2022/06/28 08:30:29;;;;;;;1.75;1.10;;;27.50;57.00;;;;;;5080398;28;20170;-96
2022/06/28 08:32:56;;;;;;;2.00;1.10;;;27.60;56.90;;;;;;5081705;28;20640;-96
2022/06/28 08:35:22;;;;;;;1.58;1.35;;;27.70;56.80;;;;;;5080175;28;20199;-95
2022/06/28 08:37:48;;;;;;;1.83;1.30;;;27.70;56.50;;;;;;5080362;28;20549;-96
2022/06/28 08:40:14;;;;;;;2.40;1.42;;;27.80;56.40;;;;;;5081117;28;20192;-96
2022/06/28 08:43:04;;;;;;;2.38;1.33;;;27.80;56.50;;;;;;5079669;28;20199;-96
2022/06/28 08:45:31;;;;;;;4.95;1.38;;;27.80;56.60;;;;;;5075981;28;20183;-95
2022/06/28 08:47:59;;;;;;;3.50;1.40;;;27.90;56.10;;;;;;5079318;28;20159;-96
2022/06/28 08:50:34;;;;;;;2.17;1.20;;;27.90;56.00;;;;;;5077334;28;20222;-95
2022/06/28 08:53:08;;;;;;;2.80;1.30;;;27.90;56.10;;;;;;5066482;28;20838;-95
2022/06/28 08:55:36;;;;;;;1.35;1.10;;;27.90;56.10;;;;;;5065466;28;20174;-95
2022/06/28 08:58:05;;;;;;;1.52;1.10;;;27.90;56.00;;;;;;5066432;28;20163;-95
2022/06/28 09:00:31;;;;;;;2.53;1.30;;;27.90;55.90;;;;;;5066824;28;20479;-95
2022/06/28 09:02:57;;;;;;;1.70;1.13;;;28.00;56.00;;;;;;5067439;28;20211;-96
2022/06/28 09:05:25;;;;;;;1.80;1.30;;;28.00;55.90;;;;;;5066187;28;20164;-95
2022/06/28 09:07:52;;;;;;;2.25;1.20;;;28.00;55.90;;;;;;5065095;28;20172;-94
2022/06/28 09:10:19;;;;;;;2.03;1.33;;;28.10;55.90;;;;;;5066365;28;20213;-95
2022/06/28 09:12:54;;;;;;;1.33;1.10;;;28.10;55.90;;;;;;5066379;28;20202;-95
2022/06/28 09:15:26;;;;;;;2.25;1.20;;;28.10;55.90;;;;;;5065741;28;20198;-95
2022/06/28 09:17:56;;;;;;;3.50;1.27;;;28.20;55.80;;;;;;5066885;28;20176;-95
2022/06/28 09:20:37;;;;;;;1.70;1.33;;;28.20;55.70;;;;;;5065208;28;20204;-95
2022/06/28 09:23:05;;;;;;;1.65;1.30;;;28.20;55.50;;;;;;5065373;28;20272;-95
2022/06/28 09:25:31;;;;;;;1.95;1.10;;;28.20;55.50;;;;;;5067038;28;20171;-95
2022/06/28 09:28:02;;;;;;;2.60;1.30;;;28.20;55.30;;;;;;5065635;28;20171;-95
2022/06/28 09:30:30;;;;;;;3.53;1.23;;;28.20;55.50;;;;;;5074839;28;20160;-93
2022/06/28 09:32:58;;;;;;;2.63;1.30;;;28.20;55.60;;;;;;5080600;28;20168;-93
2022/06/28 09:35:25;;;;;;;1.95;1.20;;;28.10;55.50;;;;;;5077401;28;20210;-93
2022/06/28 09:37:51;;;;;;;2.70;1.15;;;28.10;55.70;;;;;;5074257;28;20168;-92
2022/06/28 09:40:26;;;;;;;2.75;1.23;;;28.00;55.90;;;;;;5076918;28;20189;-92
2022/06/28 09:43:14;;;;;;;2.60;1.17;;;28.10;55.90;;;;;;5077484;28;20179;-93
2022/06/28 09:45:43;;;;;;;1.70;1.20;;;28.10;55.80;;;;;;5073079;28;20176;-92
2022/06/28 09:48:21;;;;;;;1.50;1.20;;;28.10;55.90;;;;;;5077316;28;20175;-93
2022/06/28 09:50:47;;;;;;;1.98;1.20;;;28.00;56.00;;;;;;5070463;28;20164;-92
2022/06/28 09:53:15;;;;;;;1.70;1.27;;;27.90;56.00;;;;;;5072418;28;20194;-93
2022/06/28 09:55:42;;;;;;;2.20;1.20;;;27.90;56.10;;;;;;5066498;28;20176;-93
2022/06/28 09:58:09;;;;;;;2.67;1.20;;;27.90;56.30;;;;;;5073219;28;20175;-93
2022/06/28 10:00:39;;;;;;;1.42;1.05;;;27.90;56.40;;;;;;5074933;28;20203;-92
2022/06/28 10:03:06;;;;;;;1.60;1.10;;;27.90;56.30;;;;;;5074897;28;20179;-94
2022/06/28 10:05:33;;;;;;;3.30;1.25;;;27.90;56.10;;;;;;5079864;28;20167;-95
2022/06/28 10:08:02;;;;;;;1.77;1.10;;;27.90;54.80;;;;;;5072359;28;20182;-93
2022/06/28 10:10:28;;;;;;;2.70;1.23;;;27.90;54.70;;;;;;5063082;28;20239;-94
2022/06/28 10:15:44;;;;;;;2.50;1.05;;;27.80;55.70;;;;;;5083456;28;20194;-94
2022/06/28 10:18:15;;;;;;;1.75;1.00;;;27.70;56.00;;;;;;5064172;28;20176;-94
2022/06/28 10:20:43;;;;;;;2.47;1.30;;;27.60;56.30;;;;;;5062759;28;20203;-93
2022/06/28 10:23:28;;;;;;;2.03;1.20;;;27.60;56.40;;;;;;5062913;28;20156;-94
2022/06/28 10:26:18;;;;;;;2.33;1.20;;;27.50;56.40;;;;;;5065419;28;20163;-94
2022/06/28 10:28:46;;;;;;;5.18;1.48;;;27.50;56.60;;;;;;5064767;28;20260;-93
2022/06/28 10:31:23;;;;;;;2.78;1.35;;;27.50;56.50;;;;;;5064797;28;20240;-93
2022/06/28 10:33:55;;;;;;;2.13;1.20;;;27.50;55.80;;;;;;5064692;28;20260;-94
2022/06/28 10:36:23;;;;;;;3.20;1.48;;;27.50;56.30;;;;;;5065382;28;20171;-93
2022/06/28 10:39:07;;;;;;;4.35;1.10;;;27.50;56.40;;;;;;5067134;28;20185;-93
2022/06/28 10:41:40;;;;;;;2.47;1.02;;;27.50;55.40;;;;;;5062415;28;20577;-92
2022/06/28 10:44:22;;;;;;;1.98;1.30;;;27.50;55.00;;;;;;5070832;28;20170;-94
2022/06/28 10:47:05;;;;;;;2.85;1.30;;;27.40;54.70;;;;;;5070026;28;20175;-94
2022/06/28 10:49:45;;;;;;;2.75;1.08;;;27.40;55.60;;;;;;5065388;28;20445;-95
2022/06/28 10:52:47;;;;;;;2.75;1.20;;;27.40;56.00;;;;;;5063346;28;20458;-94
2022/06/28 10:55:20;;;;;;;1.90;1.20;;;27.40;56.10;;;;;;5043867;28;20175;-95
2022/06/28 10:57:46;;;;;;;1.60;1.05;;;27.40;55.90;;;;;;5058224;28;20179;-94
2022/06/28 11:00:23;;;;;;;3.50;1.27;;;27.40;56.20;;;;;;5061031;28;20202;-94
2022/06/28 11:02:52;;;;;;;2.00;1.17;;;27.40;56.20;;;;;;5064718;28;20178;-94
2022/06/28 11:05:19;;;;;;;3.20;1.10;;;27.30;55.60;;;;;;5063234;28;20451;-94
2022/06/28 11:08:06;;;;;;;1.55;1.10;;;27.30;54.40;;;;;;5064129;28;20171;-94
2022/06/28 11:10:31;;;;;;;2.73;1.33;;;27.30;51.20;;;;;;5066682;28;20179;-95
2022/06/28 11:13:19;;;;;;;3.53;1.23;;;27.40;54.40;;;;;;5062806;28;20172;-94
2022/06/28 11:15:46;;;;;;;2.17;0.90;;;27.30;54.90;;;;;;5068216;28;20175;-93
2022/06/28 11:18:16;;;;;;;3.33;1.20;;;27.30;55.40;;;;;;5056969;28;20279;-93
2022/06/28 11:20:42;;;;;;;2.67;1.13;;;27.30;55.60;;;;;;5059425;28;20219;-93
2022/06/28 11:23:08;;;;;;;2.47;1.10;;;27.30;55.60;;;;;;5058997;28;20200;-94
2022/06/28 11:28:21;;;;;;;3.73;1.40;;;27.30;53.50;;;;;;5077888;28;20221;-94
2022/06/28 11:30:49;;;;;;;4.03;1.33;;;27.40;54.80;;;;;;5060550;28;20183;-94
2022/06/28 11:33:16;;;;;;;1.83;0.93;;;27.30;51.20;;;;;;5060794;28;20171;-94
2022/06/28 11:35:42;;;;;;;2.20;0.93;;;27.30;50.60;;;;;;5060995;28;20195;-95
2022/06/28 11:38:14;;;;;;;2.33;1.10;;;27.40;50.10;;;;;;5062113;28;20209;-93
2022/06/28 11:40:54;;;;;;;1.63;1.10;;;27.30;51.40;;;;;;5064212;28;20214;-94
2022/06/28 11:43:27;;;;;;;1.87;1.10;;;27.30;52.70;;;;;;5062031;28;20167;-94
2022/06/28 11:45:54;;;;;;;3.07;1.30;;;27.20;50.10;;;;;;5061477;28;20525;-93
2022/06/28 11:48:26;;;;;;;2.33;0.93;;;27.20;52.20;;;;;;5060460;28;20172;-94
2022/06/28 11:50:54;;;;;;;3.10;1.07;;;27.20;51.00;;;;;;5071427;28;20180;-93
2022/06/28 11:53:21;;;;;;;2.30;1.23;;;27.20;50.40;;;;;;5066422;28;20225;-93
2022/06/28 11:55:48;;;;;;;1.67;1.00;;;27.20;52.90;;;;;;5061848;28;20179;-93
2022/06/28 11:58:15;;;;;;;4.57;1.33;;;27.20;50.80;;;;;;5064365;28;20176;-93
2022/06/28 12:01:01;;;;;;;2.43;1.10;;;27.20;49.40;;;;;;5065600;28;20204;-94
2022/06/28 12:03:28;;;;;;;2.20;1.30;;;27.20;50.40;;;;;;5064946;28;20187;-93
2022/06/28 12:05:57;;;;;;;2.70;1.20;;;27.20;49.20;;;;;;5070876;28;20168;-94
2022/06/28 12:08:47;;;;;;;3.77;1.10;;;27.10;48.60;;;;;;5073839;28;20265;-94
2022/06/28 12:11:37;;;;;;;2.37;1.17;;;27.00;50.80;;;;;;5068645;28;20330;-93
2022/06/28 12:14:03;;;;;;;1.63;1.10;;;27.00;49.50;;;;;;5068823;28;20462;-94
2022/06/28 12:16:33;;;;;;;2.97;1.13;;;27.00;48.90;;;;;;5065778;28;20175;-94
2022/06/28 12:19:00;;;;;;;1.60;1.30;;;26.90;49.10;;;;;;5065901;28;20184;-94
2022/06/28 12:21:27;;;;;;;2.37;1.00;;;26.90;51.10;;;;;;5066029;28;20212;-93
2022/06/28 12:23:55;;;;;;;2.07;1.00;;;26.90;51.30;;;;;;5059571;28;20382;-94
2022/06/28 12:26:36;;;;;;;3.40;1.10;;;26.90;53.20;;;;;;5058656;28;20163;-93
2022/06/28 12:29:02;;;;;;;2.83;1.10;;;26.90;50.20;;;;;;5059243;28;20182;-93
2022/06/28 12:31:28;;;;;;;1.27;1.03;;;26.90;52.60;;;;;;5057870;28;20400;-93
2022/06/28 12:33:54;;;;;;;2.77;1.30;;;26.90;54.50;;;;;;5060560;28;20194;-93
2022/06/28 12:36:20;;;;;;;2.17;1.30;;;26.90;54.10;;;;;;5061299;28;20168;-94
2022/06/28 12:38:45;;;;;;;1.40;1.17;;;26.90;51.40;;;;;;5059748;28;20281;-94
2022/06/28 12:41:11;;;;;;;3.93;1.20;;;26.90;50.60;;;;;;5056462;28;20199;-92
2022/06/28 12:43:36;;;;;;;3.20;1.30;;;26.90;49.70;;;;;;5060121;28;20230;-93
2022/06/28 12:46:02;;;;;;;2.20;1.27;;;26.90;49.40;;;;;;5060662;28;20266;-93
2022/06/28 12:48:28;;;;;;;2.13;1.10;;;26.90;51.40;;;;;;5059834;28;20441;-93
2022/06/28 12:50:54;;;;;;;2.53;1.20;;;26.80;50.30;;;;;;5058618;28;20301;-94
2022/06/28 12:53:20;;;;;;;2.90;1.00;;;26.80;49.30;;;;;;5060031;28;20183;-94
2022/06/28 12:55:46;;;;;;;2.60;1.20;;;26.80;49.00;;;;;;5060882;28;20201;-93
2022/06/28 12:58:12;;;;;;;2.27;1.20;;;26.70;48.60;;;;;;5068214;28;20179;-93
2022/06/28 13:00:38;;;;;;;2.37;1.10;;;26.70;48.50;;;;;;5067224;28;20685;-93
2022/06/28 13:03:05;;;;;;;2.70;1.10;;;26.70;48.80;;;;;;5064698;28;20168;-93
2022/06/28 13:05:31;;;;;;;1.60;1.10;;;26.80;51.10;;;;;;5062964;28;20506;-93
2022/06/28 13:07:56;;;;;;;2.70;1.20;;;26.80;53.50;;;;;;5059342;28;20232;-94
2022/06/28 13:10:23;;;;;;;1.43;1.10;;;26.80;53.90;;;;;;5058092;28;20175;-93
2022/06/28 13:12:49;;;;;;;1.57;1.10;;;26.80;54.20;;;;;;5057937;28;20176;-93
2022/06/28 13:15:15;;;;;;;1.50;0.90;;;26.80;54.80;;;;;;5058100;28;20202;-93
2022/06/28 13:17:42;;;;;;;1.10;1.00;;;26.80;55.10;;;;;;5057056;28;20667;-93
2022/06/28 13:20:12;;;;;;;1.87;1.10;;;26.80;55.30;;;;;;5059196;28;20212;-93